sensor_id;sensor_type;location;lat;lon;timestamp;P1;durP1;ratioP1;P2;durP2;ratioP2
44762;SDS011;30483;49.576;6.036;2024-01-25T04:02:05;5.05;;;1.85;;
44762;SDS011;30483;49.576;6.036;2024-01-25T04:04:31;4.47;;;1.63;;
44762;SDS011;30483;49.576;6.036;2024-01-25T04:06:56;6.13;;;1.85;;
44762;SDS011;30483;49.576;6.036;2024-01-25T04:09:22;7.10;;;1.88;;
44762;SDS011;30483;49.576;6.036;2024-01-25T04:11:48;3.70;;;1.80;;
44762;SDS011;30483;49.576;6.036;2024-01-25T04:14:13;5.25;;;1.80;;
44762;SDS011;30483;49.576;6.036;2024-01-25T04:16:40;5.40;;;1.88;;
44762;SDS011;30483;49.576;6.036;2024-01-25T04:19:06;6.80;;;1.77;;
44762;SDS011;30483;49.576;6.036;2024-01-25T04:21:32;4.22;;;1.58;;
44762;SDS011;30483;49.576;6.036;2024-01-25T04:23:58;5.38;;;1.75;;
44762;SDS011;30483;49.576;6.036;2024-01-25T04:26:24;4.10;;;1.80;;
44762;SDS011;30483;49.576;6.036;2024-01-25T04:28:49;5.53;;;1.90;;
44762;SDS011;30483;49.576;6.036;2024-01-25T04:31:15;5.45;;;1.83;;
44762;SDS011;30483;49.576;6.036;2024-01-25T04:33:40;5.53;;;2.13;;
44762;SDS011;30483;49.576;6.036;2024-01-25T04:36:06;5.63;;;2.00;;
44762;SDS011;30483;49.576;6.036;2024-01-25T04:38:32;5.93;;;2.00;;
44762;SDS011;30483;49.576;6.036;2024-01-25T04:40:57;5.85;;;1.90;;
44762;SDS011;30483;49.576;6.036;2024-01-25T04:43:23;5.93;;;1.98;;
44762;SDS011;30483;49.576;6.036;2024-01-25T04:45:49;4.80;;;2.00;;
44762;SDS011;30483;49.576;6.036;2024-01-25T04:48:15;6.15;;;2.00;;
44762;SDS011;30483;49.576;6.036;2024-01-25T04:50:40;4.65;;;1.70;;
44762;SDS011;30483;49.576;6.036;2024-01-25T04:53:06;6.07;;;2.08;;
44762;SDS011;30483;49.576;6.036;2024-01-25T04:55:32;6.70;;;1.98;;
44762;SDS011;30483;49.576;6.036;2024-01-25T04:57:57;5.20;;;1.80;;
44762;SDS011;30483;49.576;6.036;2024-01-25T05:00:23;7.53;;;2.08;;
44762;SDS011;30483;49.576;6.036;2024-01-25T05:02:48;5.95;;;1.90;;
44762;SDS011;30483;49.576;6.036;2024-01-25T05:05:14;4.18;;;1.80;;
44762;SDS011;30483;49.576;6.036;2024-01-25T05:07:40;6.60;;;1.88;;
44762;SDS011;30483;49.576;6.036;2024-01-25T05:10:06;5.47;;;1.88;;
44762;SDS011;30483;49.576;6.036;2024-01-25T05:12:32;6.13;;;1.90;;
44762;SDS011;30483;49.576;6.036;2024-01-25T05:14:58;5.90;;;2.13;;
44762;SDS011;30483;49.576;6.036;2024-01-25T05:17:24;5.07;;;2.08;;
44762;SDS011;30483;49.576;6.036;2024-01-25T05:19:49;11.52;;;3.22;;
44762;SDS011;30483;49.576;6.036;2024-01-25T05:22:15;26.50;;;5.95;;
44762;SDS011;30483;49.576;6.036;2024-01-25T05:24:41;21.55;;;4.95;;
44762;SDS011;30483;49.576;6.036;2024-01-25T05:27:07;14.18;;;3.55;;
44762;SDS011;30483;49.576;6.036;2024-01-25T05:29:32;16.67;;;3.70;;
44762;SDS011;30483;49.576;6.036;2024-01-25T05:31:58;16.25;;;4.03;;
44762;SDS011;30483;49.576;6.036;2024-01-25T05:34:24;11.93;;;3.35;;
44762;SDS011;30483;49.576;6.036;2024-01-25T05:36:49;16.52;;;3.95;;
44762;SDS011;30483;49.576;6.036;2024-01-25T05:39:15;15.18;;;3.75;;
44762;SDS011;30483;49.576;6.036;2024-01-25T05:41:42;14.45;;;3.75;;
44762;SDS011;30483;49.576;6.036;2024-01-25T05:44:09;12.75;;;3.17;;
44762;SDS011;30483;49.576;6.036;2024-01-25T05:46:36;9.50;;;2.95;;
44762;SDS011;30483;49.576;6.036;2024-01-25T05:49:01;14.30;;;3.67;;
44762;SDS011;30483;49.576;6.036;2024-01-25T05:51:27;11.88;;;3.33;;
44762;SDS011;30483;49.576;6.036;2024-01-25T05:53:52;11.27;;;3.20;;
44762;SDS011;30483;49.576;6.036;2024-01-25T05:56:18;12.02;;;3.40;;
44762;SDS011;30483;49.576;6.036;2024-01-25T05:58:44;12.30;;;3.33;;
44762;SDS011;30483;49.576;6.036;2024-01-25T06:01:09;11.35;;;3.60;;
44762;SDS011;30483;49.576;6.036;2024-01-25T06:03:35;10.80;;;2.90;;
44762;SDS011;30483;49.576;6.036;2024-01-25T06:06:00;11.88;;;3.60;;
44762;SDS011;30483;49.576;6.036;2024-01-25T06:08:26;12.30;;;3.47;;
44762;SDS011;30483;49.576;6.036;2024-01-25T06:10:51;11.63;;;3.22;;
44762;SDS011;30483;49.576;6.036;2024-01-25T06:13:17;10.05;;;3.15;;
44762;SDS011;30483;49.576;6.036;2024-01-25T06:15:42;11.13;;;3.70;;
44762;SDS011;30483;49.576;6.036;2024-01-25T06:18:08;11.20;;;2.97;;
44762;SDS011;30483;49.576;6.036;2024-01-25T06:20:34;10.88;;;3.28;;
44762;SDS011;30483;49.576;6.036;2024-01-25T06:22:59;9.45;;;3.35;;
44762;SDS011;30483;49.576;6.036;2024-01-25T06:25:25;9.23;;;2.97;;
44762;SDS011;30483;49.576;6.036;2024-01-25T06:27:55;12.35;;;3.65;;
44762;SDS011;30483;49.576;6.036;2024-01-25T06:30:22;16.92;;;4.35;;
44762;SDS011;30483;49.576;6.036;2024-01-25T06:32:48;11.70;;;3.80;;
44762;SDS011;30483;49.576;6.036;2024-01-25T06:35:13;11.27;;;3.03;;
44762;SDS011;30483;49.576;6.036;2024-01-25T06:37:39;9.90;;;3.25;;
44762;SDS011;30483;49.576;6.036;2024-01-25T06:40:05;11.52;;;3.30;;
44762;SDS011;30483;49.576;6.036;2024-01-25T06:42:31;9.95;;;3.35;;
44762;SDS011;30483;49.576;6.036;2024-01-25T06:44:57;11.52;;;2.95;;
44762;SDS011;30483;49.576;6.036;2024-01-25T06:47:22;10.82;;;3.20;;
44762;SDS011;30483;49.576;6.036;2024-01-25T06:49:48;22.77;;;5.13;;
44762;SDS011;30483;49.576;6.036;2024-01-25T06:52:16;37.22;;;7.32;;
44762;SDS011;30483;49.576;6.036;2024-01-25T06:54:45;35.25;;;6.80;;
44762;SDS011;30483;49.576;6.036;2024-01-25T06:57:10;29.25;;;6.22;;
44762;SDS011;30483;49.576;6.036;2024-01-25T06:59:36;25.95;;;6.20;;
44762;SDS011;30483;49.576;6.036;2024-01-25T07:02:01;22.15;;;5.43;;
44762;SDS011;30483;49.576;6.036;2024-01-25T07:04:28;17.80;;;4.45;;
44762;SDS011;30483;49.576;6.036;2024-01-25T07:06:54;13.70;;;3.63;;
44762;SDS011;30483;49.576;6.036;2024-01-25T07:09:20;19.08;;;4.05;;
44762;SDS011;30483;49.576;6.036;2024-01-25T07:11:45;19.55;;;5.20;;
44762;SDS011;30483;49.576;6.036;2024-01-25T07:14:11;21.42;;;5.22;;
44762;SDS011;30483;49.576;6.036;2024-01-25T07:16:37;19.65;;;4.82;;
44762;SDS011;30483;49.576;6.036;2024-01-25T07:19:03;17.58;;;4.60;;
44762;SDS011;30483;49.576;6.036;2024-01-25T07:21:28;19.10;;;5.38;;
44762;SDS011;30483;49.576;6.036;2024-01-25T07:23:57;18.27;;;5.05;;
44762;SDS011;30483;49.576;6.036;2024-01-25T07:26:27;19.52;;;4.93;;
44762;SDS011;30483;49.576;6.036;2024-01-25T07:28:53;17.00;;;4.82;;
44762;SDS011;30483;49.576;6.036;2024-01-25T07:31:23;18.88;;;4.90;;
44762;SDS011;30483;49.576;6.036;2024-01-25T07:33:52;18.80;;;4.88;;
44762;SDS011;30483;49.576;6.036;2024-01-25T07:36:18;11.43;;;3.15;;
44762;SDS011;30483;49.576;6.036;2024-01-25T07:38:44;11.68;;;2.80;;
44762;SDS011;30483;49.576;6.036;2024-01-25T07:41:12;15.20;;;4.20;;
44762;SDS011;30483;49.576;6.036;2024-01-25T07:43:38;30.15;;;7.35;;
44762;SDS011;30483;49.576;6.036;2024-01-25T07:46:03;32.80;;;7.10;;
44762;SDS011;30483;49.576;6.036;2024-01-25T07:48:29;39.72;;;7.20;;
44762;SDS011;30483;49.576;6.036;2024-01-25T07:50:54;33.00;;;6.68;;
44762;SDS011;30483;49.576;6.036;2024-01-25T07:53:20;32.42;;;6.85;;
44762;SDS011;30483;49.576;6.036;2024-01-25T07:55:45;25.08;;;6.35;;
44762;SDS011;30483;49.576;6.036;2024-01-25T07:58:11;24.65;;;5.72;;
44762;SDS011;30483;49.576;6.036;2024-01-25T08:00:37;25.05;;;6.50;;
44762;SDS011;30483;49.576;6.036;2024-01-25T08:03:02;20.98;;;5.88;;
44762;SDS011;30483;49.576;6.036;2024-01-25T08:05:28;17.80;;;5.32;;
44762;SDS011;30483;49.576;6.036;2024-01-25T08:07:54;22.55;;;5.60;;
44762;SDS011;30483;49.576;6.036;2024-01-25T08:10:19;23.80;;;5.70;;
44762;SDS011;30483;49.576;6.036;2024-01-25T08:12:45;20.98;;;5.50;;
44762;SDS011;30483;49.576;6.036;2024-01-25T08:15:12;15.65;;;4.95;;
44762;SDS011;30483;49.576;6.036;2024-01-25T08:17:38;22.20;;;5.93;;
44762;SDS011;30483;49.576;6.036;2024-01-25T08:20:04;18.30;;;5.25;;
44762;SDS011;30483;49.576;6.036;2024-01-25T08:22:33;18.45;;;5.30;;
44762;SDS011;30483;49.576;6.036;2024-01-25T08:24:59;16.25;;;4.70;;
44762;SDS011;30483;49.576;6.036;2024-01-25T08:27:25;17.00;;;4.97;;
44762;SDS011;30483;49.576;6.036;2024-01-25T08:29:50;19.80;;;5.47;;
44762;SDS011;30483;49.576;6.036;2024-01-25T08:32:16;17.77;;;5.00;;
44762;SDS011;30483;49.576;6.036;2024-01-25T08:34:41;18.63;;;4.88;;
44762;SDS011;30483;49.576;6.036;2024-01-25T08:37:07;19.13;;;4.90;;
44762;SDS011;30483;49.576;6.036;2024-01-25T08:39:33;17.25;;;5.10;;
44762;SDS011;30483;49.576;6.036;2024-01-25T08:41:58;19.05;;;5.15;;
44762;SDS011;30483;49.576;6.036;2024-01-25T08:44:27;16.55;;;5.22;;
44762;SDS011;30483;49.576;6.036;2024-01-25T08:46:52;17.85;;;5.43;;
44762;SDS011;30483;49.576;6.036;2024-01-25T08:49:18;16.63;;;4.97;;
44762;SDS011;30483;49.576;6.036;2024-01-25T08:51:44;17.52;;;4.80;;
44762;SDS011;30483;49.576;6.036;2024-01-25T08:54:09;17.15;;;4.97;;
44762;SDS011;30483;49.576;6.036;2024-01-25T08:56:35;14.95;;;4.82;;
44762;SDS011;30483;49.576;6.036;2024-01-25T08:59:01;21.63;;;6.13;;
44762;SDS011;30483;49.576;6.036;2024-01-25T09:01:26;24.70;;;5.68;;
44762;SDS011;30483;49.576;6.036;2024-01-25T09:03:52;13.02;;;4.03;;
44762;SDS011;30483;49.576;6.036;2024-01-25T09:06:18;19.60;;;4.55;;
44762;SDS011;30483;49.576;6.036;2024-01-25T09:08:43;20.65;;;5.05;;
44762;SDS011;30483;49.576;6.036;2024-01-25T09:11:09;12.80;;;3.67;;
44762;SDS011;30483;49.576;6.036;2024-01-25T09:13:35;17.98;;;4.60;;
44762;SDS011;30483;49.576;6.036;2024-01-25T09:16:00;17.73;;;4.75;;
44762;SDS011;30483;49.576;6.036;2024-01-25T09:18:26;17.77;;;5.00;;
44762;SDS011;30483;49.576;6.036;2024-01-25T09:20:51;17.73;;;5.03;;
44762;SDS011;30483;49.576;6.036;2024-01-25T09:23:17;14.98;;;4.15;;
44762;SDS011;30483;49.576;6.036;2024-01-25T09:25:45;12.52;;;4.35;;
44762;SDS011;30483;49.576;6.036;2024-01-25T09:28:11;15.35;;;4.35;;
44762;SDS011;30483;49.576;6.036;2024-01-25T09:30:40;14.00;;;4.10;;
44762;SDS011;30483;49.576;6.036;2024-01-25T09:33:06;17.67;;;4.30;;
44762;SDS011;30483;49.576;6.036;2024-01-25T09:35:32;13.07;;;4.28;;
44762;SDS011;30483;49.576;6.036;2024-01-25T09:37:57;13.32;;;3.90;;
44762;SDS011;30483;49.576;6.036;2024-01-25T09:40:23;12.70;;;3.92;;
44762;SDS011;30483;49.576;6.036;2024-01-25T09:42:49;15.50;;;4.07;;
44762;SDS011;30483;49.576;6.036;2024-01-25T09:45:17;15.88;;;4.28;;
44762;SDS011;30483;49.576;6.036;2024-01-25T09:47:44;12.65;;;3.88;;
44762;SDS011;30483;49.576;6.036;2024-01-25T09:50:10;13.75;;;4.05;;
44762;SDS011;30483;49.576;6.036;2024-01-25T09:52:37;13.52;;;4.15;;
44762;SDS011;30483;49.576;6.036;2024-01-25T09:55:06;13.18;;;4.03;;
44762;SDS011;30483;49.576;6.036;2024-01-25T09:57:32;13.18;;;3.40;;
44762;SDS011;30483;49.576;6.036;2024-01-25T10:00:04;12.90;;;4.05;;
44762;SDS011;30483;49.576;6.036;2024-01-25T10:02:30;10.82;;;3.72;;
44762;SDS011;30483;49.576;6.036;2024-01-25T10:04:56;12.57;;;3.42;;
44762;SDS011;30483;49.576;6.036;2024-01-25T10:07:41;11.15;;;3.55;;
44762;SDS011;30483;49.576;6.036;2024-01-25T10:10:07;17.30;;;5.93;;
44762;SDS011;30483;49.576;6.036;2024-01-25T10:12:34;17.38;;;5.45;;
44762;SDS011;30483;49.576;6.036;2024-01-25T10:15:03;18.55;;;5.75;;
44762;SDS011;30483;49.576;6.036;2024-01-25T10:17:29;17.52;;;4.45;;
44762;SDS011;30483;49.576;6.036;2024-01-25T10:19:55;20.15;;;4.28;;
44762;SDS011;30483;49.576;6.036;2024-01-25T10:22:21;12.07;;;3.55;;
44762;SDS011;30483;49.576;6.036;2024-01-25T10:24:47;15.23;;;4.40;;
44762;SDS011;30483;49.576;6.036;2024-01-25T10:27:15;14.00;;;4.05;;
44762;SDS011;30483;49.576;6.036;2024-01-25T10:29:41;15.10;;;4.10;;
44762;SDS011;30483;49.576;6.036;2024-01-25T10:32:10;13.90;;;4.05;;
44762;SDS011;30483;49.576;6.036;2024-01-25T10:34:37;14.27;;;3.75;;
44762;SDS011;30483;49.576;6.036;2024-01-25T10:37:06;11.60;;;3.90;;
44762;SDS011;30483;49.576;6.036;2024-01-25T10:39:32;11.02;;;3.95;;
44762;SDS011;30483;49.576;6.036;2024-01-25T10:41:59;9.55;;;3.88;;
44762;SDS011;30483;49.576;6.036;2024-01-25T10:44:25;14.82;;;3.63;;
44762;SDS011;30483;49.576;6.036;2024-01-25T10:46:51;12.00;;;3.90;;
44762;SDS011;30483;49.576;6.036;2024-01-25T10:49:19;9.45;;;3.60;;
44762;SDS011;30483;49.576;6.036;2024-01-25T10:51:44;11.23;;;4.05;;
44762;SDS011;30483;49.576;6.036;2024-01-25T10:54:11;10.80;;;4.63;;
44762;SDS011;30483;49.576;6.036;2024-01-25T10:56:41;11.93;;;4.95;;
44762;SDS011;30483;49.576;6.036;2024-01-25T10:59:07;17.05;;;4.95;;
44762;SDS011;30483;49.576;6.036;2024-01-25T11:01:33;15.65;;;4.72;;
44762;SDS011;30483;49.576;6.036;2024-01-25T11:04:02;19.98;;;5.40;;
44762;SDS011;30483;49.576;6.036;2024-01-25T11:06:36;16.20;;;4.47;;
44762;SDS011;30483;49.576;6.036;2024-01-25T11:09:05;13.07;;;4.32;;
44762;SDS011;30483;49.576;6.036;2024-01-25T11:11:31;15.68;;;4.70;;
44762;SDS011;30483;49.576;6.036;2024-01-25T11:13:58;13.98;;;4.35;;
44762;SDS011;30483;49.576;6.036;2024-01-25T11:16:30;17.48;;;4.63;;
44762;SDS011;30483;49.576;6.036;2024-01-25T11:18:57;12.13;;;4.55;;
44762;SDS011;30483;49.576;6.036;2024-01-25T11:21:39;13.20;;;4.28;;
44762;SDS011;30483;49.576;6.036;2024-01-25T11:26:38;13.27;;;4.28;;
44762;SDS011;30483;49.576;6.036;2024-01-25T11:29:04;16.52;;;4.07;;
44762;SDS011;30483;49.576;6.036;2024-01-25T11:31:30;13.60;;;4.40;;
44762;SDS011;30483;49.576;6.036;2024-01-25T11:33:59;12.13;;;4.05;;
44762;SDS011;30483;49.576;6.036;2024-01-25T11:36:25;14.03;;;3.87;;
44762;SDS011;30483;49.576;6.036;2024-01-25T11:38:51;11.82;;;3.80;;
44762;SDS011;30483;49.576;6.036;2024-01-25T11:41:17;11.00;;;3.67;;
44762;SDS011;30483;49.576;6.036;2024-01-25T11:43:43;11.18;;;4.03;;
44762;SDS011;30483;49.576;6.036;2024-01-25T11:46:08;12.70;;;4.18;;
44762;SDS011;30483;49.576;6.036;2024-01-25T11:48:38;12.80;;;3.85;;
44762;SDS011;30483;49.576;6.036;2024-01-25T11:51:05;11.35;;;3.75;;
44762;SDS011;30483;49.576;6.036;2024-01-25T11:53:31;9.82;;;3.67;;
44762;SDS011;30483;49.576;6.036;2024-01-25T11:55:57;13.00;;;3.28;;
44762;SDS011;30483;49.576;6.036;2024-01-25T11:58:23;12.05;;;3.97;;
44762;SDS011;30483;49.576;6.036;2024-01-25T12:00:49;9.68;;;3.67;;
44762;SDS011;30483;49.576;6.036;2024-01-25T12:03:15;9.88;;;3.30;;
44762;SDS011;30483;49.576;6.036;2024-01-25T12:05:41;10.57;;;3.55;;
44762;SDS011;30483;49.576;6.036;2024-01-25T12:08:08;11.07;;;3.60;;
44762;SDS011;30483;49.576;6.036;2024-01-25T12:10:34;10.13;;;3.38;;
44762;SDS011;30483;49.576;6.036;2024-01-25T12:13:00;13.13;;;4.22;;
44762;SDS011;30483;49.576;6.036;2024-01-25T12:15:25;9.13;;;3.60;;
44762;SDS011;30483;49.576;6.036;2024-01-25T12:17:51;9.63;;;3.28;;
44762;SDS011;30483;49.576;6.036;2024-01-25T12:20:17;9.73;;;3.63;;
44762;SDS011;30483;49.576;6.036;2024-01-25T12:22:43;9.77;;;3.22;;
44762;SDS011;30483;49.576;6.036;2024-01-25T12:25:09;9.27;;;3.30;;
44762;SDS011;30483;49.576;6.036;2024-01-25T12:27:35;10.38;;;3.47;;
44762;SDS011;30483;49.576;6.036;2024-01-25T12:30:02;8.48;;;3.40;;
44762;SDS011;30483;49.576;6.036;2024-01-25T12:32:29;9.00;;;3.25;;
44762;SDS011;30483;49.576;6.036;2024-01-25T12:37:20;9.30;;;3.35;;
44762;SDS011;30483;49.576;6.036;2024-01-25T12:39:46;9.27;;;3.42;;
44762;SDS011;30483;49.576;6.036;2024-01-25T12:42:12;8.65;;;2.85;;
44762;SDS011;30483;49.576;6.036;2024-01-25T12:44:38;7.60;;;3.20;;
44762;SDS011;30483;49.576;6.036;2024-01-25T12:47:04;8.50;;;3.30;;
44762;SDS011;30483;49.576;6.036;2024-01-25T12:49:31;8.02;;;3.17;;
44762;SDS011;30483;49.576;6.036;2024-01-25T12:51:57;8.45;;;3.40;;
44762;SDS011;30483;49.576;6.036;2024-01-25T12:54:23;7.35;;;3.10;;
44762;SDS011;30483;49.576;6.036;2024-01-25T12:56:49;9.35;;;3.38;;
44762;SDS011;30483;49.576;6.036;2024-01-25T12:59:14;8.02;;;3.10;;
44762;SDS011;30483;49.576;6.036;2024-01-25T13:01:40;7.43;;;2.88;;
44762;SDS011;30483;49.576;6.036;2024-01-25T13:04:06;7.38;;;3.05;;
44762;SDS011;30483;49.576;6.036;2024-01-25T13:06:31;8.95;;;2.95;;
44762;SDS011;30483;49.576;6.036;2024-01-25T13:08:57;8.90;;;3.47;;
44762;SDS011;30483;49.576;6.036;2024-01-25T13:11:22;7.50;;;3.28;;
44762;SDS011;30483;49.576;6.036;2024-01-25T13:13:48;8.35;;;2.88;;
44762;SDS011;30483;49.576;6.036;2024-01-25T13:16:15;7.07;;;2.47;;
44762;SDS011;30483;49.576;6.036;2024-01-25T13:18:41;7.80;;;3.03;;
44762;SDS011;30483;49.576;6.036;2024-01-25T13:21:06;8.95;;;3.10;;
44762;SDS011;30483;49.576;6.036;2024-01-25T13:23:32;7.63;;;2.92;;
44762;SDS011;30483;49.576;6.036;2024-01-25T13:25:58;7.20;;;2.85;;
44762;SDS011;30483;49.576;6.036;2024-01-25T13:28:23;5.78;;;2.80;;
44762;SDS011;30483;49.576;6.036;2024-01-25T13:30:49;5.63;;;2.60;;
44762;SDS011;30483;49.576;6.036;2024-01-25T13:33:14;5.05;;;2.33;;
44762;SDS011;30483;49.576;6.036;2024-01-25T13:35:40;6.53;;;2.90;;
44762;SDS011;30483;49.576;6.036;2024-01-25T13:38:05;7.15;;;2.55;;
44762;SDS011;30483;49.576;6.036;2024-01-25T13:40:31;8.07;;;2.97;;
44762;SDS011;30483;49.576;6.036;2024-01-25T13:42:56;6.55;;;2.25;;
44762;SDS011;30483;49.576;6.036;2024-01-25T13:45:22;5.82;;;2.45;;
44762;SDS011;30483;49.576;6.036;2024-01-25T13:47:48;7.10;;;2.83;;
44762;SDS011;30483;49.576;6.036;2024-01-25T13:50:13;6.43;;;3.08;;
44762;SDS011;30483;49.576;6.036;2024-01-25T13:52:39;5.28;;;2.42;;
44762;SDS011;30483;49.576;6.036;2024-01-25T13:55:05;7.63;;;2.95;;
44762;SDS011;30483;49.576;6.036;2024-01-25T13:57:31;4.43;;;2.28;;
44762;SDS011;30483;49.576;6.036;2024-01-25T13:59:56;6.03;;;2.58;;
44762;SDS011;30483;49.576;6.036;2024-01-25T14:02:22;6.53;;;2.80;;
44762;SDS011;30483;49.576;6.036;2024-01-25T14:04:47;5.65;;;2.60;;
44762;SDS011;30483;49.576;6.036;2024-01-25T14:07:14;6.13;;;2.65;;
44762;SDS011;30483;49.576;6.036;2024-01-25T14:09:41;6.32;;;2.40;;
44762;SDS011;30483;49.576;6.036;2024-01-25T14:12:07;5.30;;;2.67;;
44762;SDS011;30483;49.576;6.036;2024-01-25T14:14:33;5.97;;;2.47;;
44762;SDS011;30483;49.576;6.036;2024-01-25T14:16:58;4.90;;;2.35;;
44762;SDS011;30483;49.576;6.036;2024-01-25T14:19:24;4.75;;;2.50;;
44762;SDS011;30483;49.576;6.036;2024-01-25T14:21:50;6.65;;;2.40;;
44762;SDS011;30483;49.576;6.036;2024-01-25T14:24:16;4.63;;;2.38;;
44762;SDS011;30483;49.576;6.036;2024-01-25T14:26:41;5.35;;;2.30;;
44762;SDS011;30483;49.576;6.036;2024-01-25T14:29:08;6.07;;;2.35;;
44762;SDS011;30483;49.576;6.036;2024-01-25T14:31:34;5.47;;;2.55;;
44762;SDS011;30483;49.576;6.036;2024-01-25T14:34:01;5.05;;;2.17;;
44762;SDS011;30483;49.576;6.036;2024-01-25T14:36:26;5.57;;;2.50;;
44762;SDS011;30483;49.576;6.036;2024-01-25T14:38:52;4.97;;;2.33;;
44762;SDS011;30483;49.576;6.036;2024-01-25T14:41:17;5.10;;;2.58;;
44762;SDS011;30483;49.576;6.036;2024-01-25T14:43:43;4.80;;;2.40;;
44762;SDS011;30483;49.576;6.036;2024-01-25T14:46:09;5.10;;;2.45;;
44762;SDS011;30483;49.576;6.036;2024-01-25T14:48:35;5.13;;;2.45;;
44762;SDS011;30483;49.576;6.036;2024-01-25T14:51:01;4.97;;;2.67;;
44762;SDS011;30483;49.576;6.036;2024-01-25T14:53:27;5.07;;;2.53;;
44762;SDS011;30483;49.576;6.036;2024-01-25T14:55:52;5.40;;;2.33;;
44762;SDS011;30483;49.576;6.036;2024-01-25T14:58:18;4.38;;;2.08;;
44762;SDS011;30483;49.576;6.036;2024-01-25T15:00:50;5.38;;;2.45;;
44762;SDS011;30483;49.576;6.036;2024-01-25T15:03:16;4.47;;;2.20;;
44762;SDS011;30483;49.576;6.036;2024-01-25T15:05:42;5.35;;;2.35;;
44762;SDS011;30483;49.576;6.036;2024-01-25T15:08:08;4.70;;;2.30;;
44762;SDS011;30483;49.576;6.036;2024-01-25T15:10:33;5.20;;;2.30;;
44762;SDS011;30483;49.576;6.036;2024-01-25T15:12:59;4.30;;;2.20;;
44762;SDS011;30483;49.576;6.036;2024-01-25T15:15:25;3.53;;;1.83;;
44762;SDS011;30483;49.576;6.036;2024-01-25T15:17:53;4.85;;;2.40;;
44762;SDS011;30483;49.576;6.036;2024-01-25T15:20:19;3.75;;;1.90;;
44762;SDS011;30483;49.576;6.036;2024-01-25T15:22:45;3.38;;;2.17;;
44762;SDS011;30483;49.576;6.036;2024-01-25T15:25:11;4.15;;;2.17;;
44762;SDS011;30483;49.576;6.036;2024-01-25T15:27:36;4.25;;;2.22;;
44762;SDS011;30483;49.576;6.036;2024-01-25T15:30:02;4.38;;;2.08;;
44762;SDS011;30483;49.576;6.036;2024-01-25T15:32:28;5.53;;;2.17;;
44762;SDS011;30483;49.576;6.036;2024-01-25T15:34:53;4.15;;;2.08;;
44762;SDS011;30483;49.576;6.036;2024-01-25T15:37:19;4.18;;;1.95;;
44762;SDS011;30483;49.576;6.036;2024-01-25T15:39:44;4.28;;;2.30;;
44762;SDS011;30483;49.576;6.036;2024-01-25T15:42:11;5.03;;;2.22;;
44762;SDS011;30483;49.576;6.036;2024-01-25T15:44:36;3.78;;;1.92;;
44762;SDS011;30483;49.576;6.036;2024-01-25T15:47:02;4.60;;;2.10;;
44762;SDS011;30483;49.576;6.036;2024-01-25T15:49:27;3.63;;;2.10;;
44762;SDS011;30483;49.576;6.036;2024-01-25T15:51:53;4.13;;;2.30;;
44762;SDS011;30483;49.576;6.036;2024-01-25T15:54:19;7.18;;;2.17;;
44762;SDS011;30483;49.576;6.036;2024-01-25T15:56:44;3.17;;;1.83;;
44762;SDS011;30483;49.576;6.036;2024-01-25T15:59:10;4.60;;;2.15;;
44762;SDS011;30483;49.576;6.036;2024-01-25T16:01:35;3.60;;;2.00;;
44762;SDS011;30483;49.576;6.036;2024-01-25T16:04:01;4.32;;;1.95;;
44762;SDS011;30483;49.576;6.036;2024-01-25T16:06:27;2.83;;;1.77;;
44762;SDS011;30483;49.576;6.036;2024-01-25T16:08:52;4.15;;;1.90;;
44762;SDS011;30483;49.576;6.036;2024-01-25T16:11:22;3.33;;;1.77;;
44762;SDS011;30483;49.576;6.036;2024-01-25T16:13:47;3.65;;;1.95;;
44762;SDS011;30483;49.576;6.036;2024-01-25T16:16:13;3.60;;;2.10;;
44762;SDS011;30483;49.576;6.036;2024-01-25T16:18:39;3.60;;;1.95;;
44762;SDS011;30483;49.576;6.036;2024-01-25T16:21:04;4.20;;;1.85;;
44762;SDS011;30483;49.576;6.036;2024-01-25T16:23:30;3.47;;;1.90;;
44762;SDS011;30483;49.576;6.036;2024-01-25T16:25:55;3.38;;;1.98;;
44762;SDS011;30483;49.576;6.036;2024-01-25T16:28:21;4.10;;;2.00;;
44762;SDS011;30483;49.576;6.036;2024-01-25T16:30:46;2.90;;;1.92;;
44762;SDS011;30483;49.576;6.036;2024-01-25T16:33:12;3.67;;;2.00;;
44762;SDS011;30483;49.576;6.036;2024-01-25T16:35:37;3.55;;;2.13;;
44762;SDS011;30483;49.576;6.036;2024-01-25T16:38:03;3.95;;;2.03;;
44762;SDS011;30483;49.576;6.036;2024-01-25T16:40:29;3.22;;;2.00;;
44762;SDS011;30483;49.576;6.036;2024-01-25T16:42:54;3.30;;;2.05;;
44762;SDS011;30483;49.576;6.036;2024-01-25T16:45:20;3.75;;;2.28;;
44762;SDS011;30483;49.576;6.036;2024-01-25T16:47:46;2.75;;;1.80;;
44762;SDS011;30483;49.576;6.036;2024-01-25T16:50:12;2.63;;;1.70;;
44762;SDS011;30483;49.576;6.036;2024-01-25T16:52:38;2.28;;;1.73;;
44762;SDS011;30483;49.576;6.036;2024-01-25T16:55:04;4.28;;;2.30;;
44762;SDS011;30483;49.576;6.036;2024-01-25T16:57:30;2.88;;;1.80;;
44762;SDS011;30483;49.576;6.036;2024-01-25T16:59:56;2.85;;;1.80;;
44762;SDS011;30483;49.576;6.036;2024-01-25T17:02:21;2.78;;;1.55;;
44762;SDS011;30483;49.576;6.036;2024-01-25T17:04:47;2.70;;;1.83;;
44762;SDS011;30483;49.576;6.036;2024-01-25T17:07:13;2.65;;;1.83;;
44762;SDS011;30483;49.576;6.036;2024-01-25T17:09:38;4.15;;;1.60;;
44762;SDS011;30483;49.576;6.036;2024-01-25T17:12:04;2.72;;;1.60;;
44762;SDS011;30483;49.576;6.036;2024-01-25T17:14:30;3.08;;;1.70;;
44762;SDS011;30483;49.576;6.036;2024-01-25T17:16:56;2.80;;;1.70;;
44762;SDS011;30483;49.576;6.036;2024-01-25T17:19:21;3.55;;;1.60;;
44762;SDS011;30483;49.576;6.036;2024-01-25T17:21:47;4.28;;;1.70;;
44762;SDS011;30483;49.576;6.036;2024-01-25T17:24:12;2.53;;;1.90;;
44762;SDS011;30483;49.576;6.036;2024-01-25T17:26:38;3.20;;;1.77;;
44762;SDS011;30483;49.576;6.036;2024-01-25T17:29:03;2.42;;;1.77;;
44762;SDS011;30483;49.576;6.036;2024-01-25T17:31:29;2.28;;;1.63;;
44762;SDS011;30483;49.576;6.036;2024-01-25T17:33:54;2.92;;;1.65;;
44762;SDS011;30483;49.576;6.036;2024-01-25T17:36:20;2.38;;;1.60;;
44762;SDS011;30483;49.576;6.036;2024-01-25T17:38:46;2.22;;;1.30;;
44762;SDS011;30483;49.576;6.036;2024-01-25T17:41:11;3.40;;;1.48;;
44762;SDS011;30483;49.576;6.036;2024-01-25T17:43:37;2.13;;;1.23;;
44762;SDS011;30483;49.576;6.036;2024-01-25T17:46:03;2.30;;;1.60;;
44762;SDS011;30483;49.576;6.036;2024-01-25T17:48:29;2.13;;;1.20;;
44762;SDS011;30483;49.576;6.036;2024-01-25T17:50:55;2.60;;;1.52;;
44762;SDS011;30483;49.576;6.036;2024-01-25T17:53:20;2.90;;;1.60;;
44762;SDS011;30483;49.576;6.036;2024-01-25T17:55:46;2.60;;;1.60;;
44762;SDS011;30483;49.576;6.036;2024-01-25T17:58:12;2.03;;;1.40;;
44762;SDS011;30483;49.576;6.036;2024-01-25T18:00:38;2.55;;;1.48;;
44762;SDS011;30483;49.576;6.036;2024-01-25T18:03:03;3.50;;;1.70;;
44762;SDS011;30483;49.576;6.036;2024-01-25T18:05:42;1.90;;;1.30;;
44762;SDS011;30483;49.576;6.036;2024-01-25T18:08:09;2.28;;;1.50;;
44762;SDS011;30483;49.576;6.036;2024-01-25T18:10:36;2.63;;;1.50;;
44762;SDS011;30483;49.576;6.036;2024-01-25T18:13:05;1.63;;;1.20;;
44762;SDS011;30483;49.576;6.036;2024-01-25T18:15:31;2.17;;;1.33;;
44762;SDS011;30483;49.576;6.036;2024-01-25T18:17:58;2.42;;;1.48;;
44762;SDS011;30483;49.576;6.036;2024-01-25T18:20:24;2.00;;;1.35;;
44762;SDS011;30483;49.576;6.036;2024-01-25T18:22:49;2.45;;;1.38;;
44762;SDS011;30483;49.576;6.036;2024-01-25T18:25:15;2.47;;;1.50;;
44762;SDS011;30483;49.576;6.036;2024-01-25T18:27:41;2.03;;;1.40;;
44762;SDS011;30483;49.576;6.036;2024-01-25T18:30:07;1.65;;;1.40;;
44762;SDS011;30483;49.576;6.036;2024-01-25T18:32:33;1.92;;;1.30;;
44762;SDS011;30483;49.576;6.036;2024-01-25T18:34:59;1.83;;;1.40;;
44762;SDS011;30483;49.576;6.036;2024-01-25T18:37:24;1.85;;;1.38;;
44762;SDS011;30483;49.576;6.036;2024-01-25T18:39:50;1.55;;;1.20;;